Time;durP1;ratioP1;P1;durP2;ratioP2;P2;SDS_P1;SDS_P2;PMS_P1;PMS_P2;Temp;Humidity;BMP_temperature;BMP_pressure;BME280_temperature;BME280_humidity;BME280_pressure;Samples;Min_cycle;Max_cycle;Signal;HPM_P1;HPM_P2
2021/06/15 00:00:25;;;;;;;8.83;7.90;;;18.10;99.90;;;;;;5014376;28;20183;-77
2021/06/15 00:02:50;;;;;;;11.50;8.30;;;18.30;99.90;;;;;;5012833;28;20186;-76
2021/06/15 00:05:17;;;;;;;16.07;9.27;;;18.20;99.90;;;;;;5013058;28;20776;-76
2021/06/15 00:07:43;;;;;;;10.40;7.83;;;18.20;99.90;;;;;;5014073;28;20301;-76
2021/06/15 00:10:13;;;;;;;13.93;8.43;;;18.20;99.90;;;;;;5014278;28;20437;-76
2021/06/15 00:12:39;;;;;;;10.80;8.40;;;18.10;99.90;;;;;;5014069;28;20739;-76
2021/06/15 00:15:06;;;;;;;14.43;8.47;;;18.10;99.90;;;;;;5013783;28;20889;-76
2021/06/15 00:17:32;;;;;;;13.07;7.90;;;18.20;99.90;;;;;;5013969;28;20426;-76
2021/06/15 00:19:58;;;;;;;12.10;8.90;;;18.30;99.90;;;;;;5012703;28;20405;-76
2021/06/15 00:22:23;;;;;;;10.83;8.50;;;18.30;99.90;;;;;;5014070;28;20554;-76
2021/06/15 00:24:49;;;;;;;17.80;8.80;;;18.10;99.90;;;;;;5013626;28;20201;-76
2021/06/15 00:27:14;;;;;;;10.90;8.00;;;18.00;99.90;;;;;;5013812;28;20237;-76
2021/06/15 00:29:40;;;;;;;9.87;7.83;;;17.90;99.90;;;;;;5013881;28;20200;-76
2021/06/15 00:32:06;;;;;;;12.60;8.07;;;17.90;99.90;;;;;;5013895;28;20174;-76
2021/06/15 00:34:32;;;;;;;13.03;8.13;;;17.90;99.90;;;;;;5013443;28;20210;-76
2021/06/15 00:36:58;;;;;;;13.00;9.70;;;17.80;99.90;;;;;;5012665;28;20425;-76
2021/06/15 00:39:23;;;;;;;10.73;8.93;;;18.00;99.90;;;;;;5013749;28;20941;-77
2021/06/15 00:41:49;;;;;;;18.47;9.93;;;17.90;99.90;;;;;;5014041;28;20183;-76
2021/06/15 00:44:14;;;;;;;17.57;8.90;;;17.90;99.90;;;;;;5013354;28;20292;-76
2021/06/15 00:46:40;;;;;;;16.10;9.10;;;17.90;99.90;;;;;;5012571;28;20579;-76
2021/06/15 00:49:07;;;;;;;10.50;7.43;;;17.90;99.90;;;;;;5013695;28;20183;-76
2021/06/15 00:51:33;;;;;;;12.30;7.10;;;17.80;99.90;;;;;;5013571;28;20602;-76
2021/06/15 00:53:59;;;;;;;11.67;8.37;;;17.80;99.90;;;;;;5013190;28;20495;-75
2021/06/15 00:56:25;;;;;;;10.00;7.67;;;17.70;99.90;;;;;;5013543;28;20410;-76
2021/06/15 00:58:51;;;;;;;18.60;8.47;;;17.70;99.90;;;;;;5013462;28;20443;-76
2021/06/15 01:01:17;;;;;;;13.17;8.80;;;17.70;99.90;;;;;;5013540;28;20632;-76
2021/06/15 01:03:43;;;;;;;12.93;10.03;;;17.60;99.90;;;;;;5013160;28;20909;-76
2021/06/15 01:06:16;;;;;;;14.90;9.07;;;17.50;99.90;;;;;;5013586;28;20410;-76
2021/06/15 01:08:50;;;;;;;12.20;8.77;;;17.30;99.90;;;;;;5013329;28;20454;-76
2021/06/15 01:11:37;;;;;;;11.53;8.30;;;17.30;99.90;;;;;;5013493;28;20740;-76
2021/06/15 01:14:10;;;;;;;13.30;8.40;;;17.30;99.90;;;;;;5012960;28;20422;-76
2021/06/15 01:16:45;;;;;;;11.57;8.30;;;17.30;99.90;;;;;;5013413;28;20473;-76
2021/06/15 01:19:31;;;;;;;10.80;8.83;;;17.30;99.90;;;;;;5013270;28;20388;-76
2021/06/15 01:22:09;;;;;;;15.13;8.47;;;17.20;99.90;;;;;;5013300;28;20397;-76
2021/06/15 01:24:52;;;;;;;11.37;8.13;;;17.10;99.90;;;;;;5012960;28;20522;-76
2021/06/15 01:27:51;;;;;;;10.53;8.33;;;17.10;99.90;;;;;;5013418;28;20432;-76
2021/06/15 01:30:21;;;;;;;12.33;8.97;;;17.10;99.90;;;;;;5005375;28;20446;-76
2021/06/15 01:32:56;;;;;;;9.93;7.60;;;17.00;99.90;;;;;;5016913;28;20491;-76
2021/06/15 01:35:23;;;;;;;11.10;8.97;;;16.90;99.90;;;;;;5016899;28;20431;-76
2021/06/15 01:38:01;;;;;;;11.10;9.17;;;16.90;99.90;;;;;;5016990;28;20455;-76
2021/06/15 01:40:36;;;;;;;13.37;8.67;;;16.90;99.90;;;;;;5017033;28;20428;-76
2021/06/15 01:43:09;;;;;;;12.63;8.63;;;16.80;99.90;;;;;;5015438;28;20866;-76
2021/06/15 01:45:41;;;;;;;10.17;8.27;;;16.80;99.90;;;;;;5016745;28;20479;-76
2021/06/15 01:48:25;;;;;;;17.53;8.90;;;16.70;99.90;;;;;;5016916;28;20436;-76
2021/06/15 01:50:52;;;;;;;16.43;9.70;;;16.40;99.90;;;;;;5016895;28;20906;-76
2021/06/15 01:53:20;;;;;;;18.33;10.00;;;16.30;99.90;;;;;;5016398;28;20438;-76
2021/06/15 01:55:51;;;;;;;17.53;9.70;;;16.20;99.90;;;;;;5016695;28;20380;-76
2021/06/15 01:58:17;;;;;;;14.40;9.10;;;16.20;99.90;;;;;;5015514;28;20432;-76
2021/06/15 02:00:44;;;;;;;12.13;8.77;;;16.30;99.90;;;;;;5016659;28;20424;-76
2021/06/15 02:03:11;;;;;;;8.40;7.50;;;16.30;99.90;;;;;;5016265;28;20442;-76
2021/06/15 02:05:50;;;;;;;11.33;9.30;;;16.30;99.90;;;;;;5016493;28;20913;-76
2021/06/15 02:08:27;;;;;;;18.87;11.30;;;16.30;99.90;;;;;;5016373;28;20992;-76
2021/06/15 02:10:53;;;;;;;14.67;9.67;;;16.20;99.90;;;;;;5016440;28;20492;-76
2021/06/15 02:13:19;;;;;;;11.70;9.80;;;16.10;99.90;;;;;;5016088;28;20871;-76
2021/06/15 02:15:46;;;;;;;10.83;8.50;;;16.20;99.90;;;;;;5016374;28;20424;-76
2021/06/15 02:18:13;;;;;;;15.00;8.90;;;16.20;99.90;;;;;;5016147;28;20270;-76
2021/06/15 02:20:43;;;;;;;13.07;9.47;;;16.20;99.90;;;;;;5016171;28;20925;-76
2021/06/15 02:23:11;;;;;;;13.13;10.23;;;16.20;99.90;;;;;;5016023;28;20421;-76
2021/06/15 02:25:39;;;;;;;11.97;10.40;;;16.10;99.90;;;;;;5014816;28;20766;-76
2021/06/15 02:28:05;;;;;;;15.57;10.40;;;16.00;99.90;;;;;;5016072;28;20523;-77
2021/06/15 02:30:31;;;;;;;13.53;10.00;;;16.00;99.90;;;;;;5015974;28;20424;-76
2021/06/15 02:33:05;;;;;;;17.23;10.30;;;15.90;99.90;;;;;;5015638;28;20203;-76
2021/06/15 02:35:31;;;;;;;12.60;10.97;;;16.00;99.90;;;;;;5014604;28;20958;-76
2021/06/15 02:38:24;;;;;;;11.27;9.83;;;15.90;99.90;;;;;;5016199;28;20508;-76
2021/06/15 02:40:50;;;;;;;20.53;11.57;;;15.90;99.90;;;;;;5015067;28;20403;-75
2021/06/15 02:43:17;;;;;;;13.30;9.53;;;16.00;99.90;;;;;;5015447;28;20475;-76
2021/06/15 02:45:44;;;;;;;14.43;9.83;;;16.00;99.90;;;;;;5015989;28;20559;-76
2021/06/15 02:48:13;;;;;;;13.57;10.70;;;16.00;99.90;;;;;;5015778;28;20472;-76
2021/06/15 02:50:40;;;;;;;16.90;10.63;;;15.90;99.90;;;;;;5015567;28;20877;-76
2021/06/15 02:53:15;;;;;;;15.50;11.00;;;15.80;99.90;;;;;;5015445;28;20818;-76
2021/06/15 02:55:47;;;;;;;15.67;11.60;;;15.80;99.90;;;;;;5015480;28;20402;-76
2021/06/15 02:58:13;;;;;;;15.23;10.87;;;15.80;99.90;;;;;;5015642;28;20380;-76
2021/06/15 03:00:38;;;;;;;11.27;9.70;;;15.80;99.90;;;;;;5015679;28;20444;-76
2021/06/15 03:03:06;;;;;;;14.90;11.10;;;15.80;99.90;;;;;;5015156;28;20186;-76
2021/06/15 03:05:32;;;;;;;13.63;11.27;;;15.80;99.90;;;;;;5015429;28;20198;-76
2021/06/15 03:07:58;;;;;;;17.07;13.10;;;15.70;99.90;;;;;;5015544;28;20984;-76
2021/06/15 03:10:25;;;;;;;15.07;12.77;;;15.60;99.90;;;;;;5015206;28;20436;-76
2021/06/15 03:13:32;;;;;;;14.70;13.13;;;15.60;99.90;;;;;;5014891;28;20229;-76
2021/06/15 03:16:01;;;;;;;17.70;14.20;;;15.50;99.90;;;;;;5004705;28;20400;-76
2021/06/15 03:18:51;;;;;;;18.83;13.33;;;15.30;99.90;;;;;;5015108;28;20389;-76
2021/06/15 03:21:23;;;;;;;17.47;10.93;;;15.20;99.90;;;;;;5014850;28;20428;-76
2021/06/15 03:24:07;;;;;;;16.20;11.17;;;15.30;99.90;;;;;;5014756;28;20438;-76
2021/06/15 03:26:38;;;;;;;16.13;13.23;;;15.40;99.90;;;;;;5014989;28;20453;-76
2021/06/15 03:29:09;;;;;;;19.87;12.50;;;15.40;99.90;;;;;;5014955;28;20365;-76
2021/06/15 03:31:39;;;;;;;16.77;13.03;;;15.50;99.90;;;;;;5014962;28;20394;-76
2021/06/15 03:34:06;;;;;;;22.07;13.57;;;15.40;99.90;;;;;;5014357;28;20403;-76
2021/06/15 03:36:33;;;;;;;21.80;14.60;;;15.30;99.90;;;;;;5014866;28;20373;-76
2021/06/15 03:39:02;;;;;;;17.00;13.60;;;15.20;99.90;;;;;;5014599;28;20410;-76
2021/06/15 03:41:29;;;;;;;17.50;13.60;;;15.20;99.90;;;;;;5015029;28;20387;-75
2021/06/15 03:43:57;;;;;;;18.20;14.70;;;15.30;99.90;;;;;;5014314;28;20400;-76
2021/06/15 03:46:25;;;;;;;20.97;14.20;;;15.20;99.90;;;;;;5014620;28;20421;-76
2021/06/15 03:48:52;;;;;;;18.80;14.10;;;15.10;99.90;;;;;;5014518;28;20473;-76
2021/06/15 03:51:23;;;;;;;22.17;15.97;;;15.10;99.90;;;;;;5014259;28;20793;-76
2021/06/15 03:53:50;;;;;;;19.03;14.40;;;15.10;99.90;;;;;;5014542;28;20404;-76
2021/06/15 03:56:17;;;;;;;19.57;15.60;;;15.20;99.90;;;;;;5014605;28;20477;-75
2021/06/15 03:58:44;;;;;;;18.90;15.63;;;15.10;99.90;;;;;;5014588;28;20442;-76
2021/06/15 04:01:13;;;;;;;21.70;15.87;;;15.20;99.90;;;;;;5014477;28;20447;-76
2021/06/15 04:03:41;;;;;;;19.03;14.20;;;15.20;99.90;;;;;;5014114;28;20414;-76
2021/06/15 04:06:08;;;;;;;22.13;15.70;;;15.30;99.90;;;;;;5014392;28;20464;-76
2021/06/15 04:08:37;;;;;;;19.27;15.83;;;15.40;99.90;;;;;;5014190;28;20436;-75
2021/06/15 04:11:06;;;;;;;22.90;16.30;;;15.30;99.90;;;;;;5014306;28;20392;-76
2021/06/15 04:13:34;;;;;;;21.80;15.03;;;15.30;99.90;;;;;;5013729;28;20894;-76
2021/06/15 04:16:01;;;;;;;18.37;16.00;;;15.20;99.90;;;;;;5014185;28;20380;-76
2021/06/15 04:18:29;;;;;;;22.03;15.63;;;15.30;99.90;;;;;;5014169;28;20421;-76
2021/06/15 04:21:01;;;;;;;20.37;14.40;;;15.30;99.90;;;;;;5013955;28;20826;-75
2021/06/15 04:23:37;;;;;;;22.07;16.30;;;15.40;99.90;;;;;;5013703;28;20848;-76
2021/06/15 04:26:03;;;;;;;16.77;13.83;;;15.40;99.90;;;;;;5013979;28;20467;-76
2021/06/15 04:28:30;;;;;;;17.80;15.30;;;15.50;99.90;;;;;;5013832;28;20468;-76
2021/06/15 04:30:56;;;;;;;19.37;17.03;;;15.60;99.90;;;;;;5013870;28;20506;-75
2021/06/15 04:33:27;;;;;;;20.50;14.80;;;15.60;99.90;;;;;;5013246;28;20509;-76
2021/06/15 04:35:55;;;;;;;21.10;14.03;;;15.60;99.90;;;;;;5012591;28;20727;-75
2021/06/15 04:38:55;;;;;;;19.50;14.60;;;15.60;99.90;;;;;;5013712;28;20976;-76
2021/06/15 04:41:27;;;;;;;18.77;14.50;;;15.70;99.90;;;;;;5013917;28;20453;-76
2021/06/15 04:44:00;;;;;;;23.83;15.13;;;15.70;99.90;;;;;;5013568;28;20560;-75
2021/06/15 04:46:48;;;;;;;24.53;15.67;;;15.70;99.90;;;;;;5014003;28;20425;-75
2021/06/15 04:49:38;;;;;;;22.23;17.43;;;15.90;99.90;;;;;;5013321;28;20415;-75
2021/06/15 04:52:05;;;;;;;24.80;17.50;;;16.00;99.90;;;;;;5009600;28;20426;-76
2021/06/15 04:54:36;;;;;;;22.30;18.53;;;16.00;99.90;;;;;;5013097;28;20499;-76
2021/06/15 04:57:04;;;;;;;24.33;17.60;;;16.10;99.90;;;;;;5013640;28;20464;-76
2021/06/15 04:59:31;;;;;;;21.47;19.23;;;16.20;99.90;;;;;;5013367;28;20396;-76
2021/06/15 05:01:57;;;;;;;19.80;17.13;;;16.30;99.90;;;;;;5012956;28;20384;-76
2021/06/15 05:04:24;;;;;;;27.93;21.77;;;16.30;99.90;;;;;;5012870;28;20444;-76
2021/06/15 05:06:50;;;;;;;29.10;21.83;;;16.40;99.90;;;;;;5013439;28;20386;-76
2021/06/15 05:09:17;;;;;;;29.53;24.33;;;16.50;99.90;;;;;;5013254;28;20764;-76
2021/06/15 05:11:44;;;;;;;38.10;26.30;;;16.60;99.90;;;;;;5013438;28;20414;-76
2021/06/15 05:14:12;;;;;;;34.03;26.20;;;16.70;99.90;;;;;;5012908;28;20908;-76
2021/06/15 05:16:39;;;;;;;35.77;27.93;;;16.80;99.90;;;;;;5013323;28;20477;-76
2021/06/15 05:19:05;;;;;;;35.70;28.77;;;16.90;99.90;;;;;;5013358;28;20493;-76
2021/06/15 05:21:41;;;;;;;33.93;27.43;;;17.10;99.90;;;;;;5013220;28;20426;-76
2021/06/15 05:24:19;;;;;;;44.30;31.07;;;17.20;99.90;;;;;;5011715;28;20205;-76
2021/06/15 05:26:44;;;;;;;40.57;30.43;;;17.40;99.90;;;;;;5013103;28;20479;-76
2021/06/15 05:29:10;;;;;;;35.73;28.83;;;17.40;99.90;;;;;;5011931;28;20497;-75
2021/06/15 05:31:35;;;;;;;44.00;31.43;;;17.50;99.90;;;;;;5013040;28;20281;-76
2021/06/15 05:34:01;;;;;;;40.00;29.33;;;17.60;99.90;;;;;;5012754;28;20202;-76
2021/06/15 05:36:26;;;;;;;37.33;29.70;;;17.50;99.90;;;;;;5013088;28;20269;-76
2021/06/15 05:38:52;;;;;;;35.60;26.50;;;17.60;99.90;;;;;;5011861;28;20191;-76
2021/06/15 05:41:18;;;;;;;36.40;28.57;;;17.70;99.90;;;;;;5011808;28;20562;-76
2021/06/15 05:43:44;;;;;;;36.73;26.87;;;17.70;99.90;;;;;;5012561;28;20562;-76
2021/06/15 05:46:10;;;;;;;32.43;27.23;;;17.70;99.90;;;;;;5013150;28;20420;-75
2021/06/15 05:48:35;;;;;;;30.23;26.73;;;17.80;99.90;;;;;;5013173;28;20709;-74
2021/06/15 05:51:03;;;;;;;30.07;25.57;;;17.80;99.90;;;;;;5013041;28;20755;-74
2021/06/15 05:53:29;;;;;;;29.63;24.57;;;17.90;99.90;;;;;;5012661;28;20230;-75
2021/06/15 05:55:55;;;;;;;27.30;23.97;;;18.00;99.90;;;;;;5013064;28;20832;-74
2021/06/15 05:58:21;;;;;;;28.10;23.80;;;18.20;99.90;;;;;;5013317;28;20179;-74
2021/06/15 06:00:49;;;;;;;30.70;24.70;;;18.20;99.90;;;;;;5012945;28;20566;-74
2021/06/15 06:03:19;;;;;;;30.10;22.93;;;18.40;99.90;;;;;;5012369;28;20217;-74
2021/06/15 06:08:29;;;;;;;28.47;22.73;;;18.70;99.90;;;;;;4992612;28;20440;-76
2021/06/15 06:10:54;;;;;;;30.97;23.37;;;18.80;99.90;;;;;;4995168;28;20389;-74
2021/06/15 06:13:20;;;;;;;29.53;21.20;;;19.00;99.90;;;;;;4992359;28;20198;-74
2021/06/15 06:15:45;;;;;;;29.30;22.20;;;19.00;99.90;;;;;;4995621;28;20179;-76
2021/06/15 06:18:12;;;;;;;28.17;20.60;;;18.90;99.90;;;;;;4996458;28;20261;-74
2021/06/15 06:20:39;;;;;;;24.30;20.57;;;18.90;99.90;;;;;;4996940;28;20273;-74
2021/06/15 06:23:05;;;;;;;24.10;19.17;;;18.90;99.90;;;;;;4996520;28;21066;-75
2021/06/15 06:25:31;;;;;;;29.97;21.83;;;18.90;99.90;;;;;;4996480;28;20939;-75
2021/06/15 06:27:57;;;;;;;25.37;19.50;;;19.10;99.90;;;;;;4996328;28;20541;-75
2021/06/15 06:30:23;;;;;;;26.70;20.50;;;19.30;99.90;;;;;;4996518;28;20998;-76
2021/06/15 06:32:49;;;;;;;27.73;19.87;;;19.30;99.90;;;;;;4996171;28;20547;-74
2021/06/15 06:35:15;;;;;;;26.07;20.63;;;19.30;99.90;;;;;;4996317;28;20429;-74
2021/06/15 06:37:41;;;;;;;26.43;21.50;;;19.50;99.90;;;;;;5014417;28;20179;-74
2021/06/15 06:40:07;;;;;;;27.60;20.60;;;19.50;99.90;;;;;;5015856;28;20915;-75
2021/06/15 06:42:33;;;;;;;23.43;19.63;;;19.70;99.90;;;;;;5015805;28;20217;-76
2021/06/15 06:44:58;;;;;;;27.63;20.27;;;19.80;99.90;;;;;;5015538;28;20421;-74
2021/06/15 06:47:24;;;;;;;23.17;19.20;;;20.10;99.90;;;;;;5015975;28;20671;-74
2021/06/15 06:49:50;;;;;;;27.27;20.07;;;20.00;99.90;;;;;;5015728;28;20175;-74
2021/06/15 06:52:16;;;;;;;26.37;20.47;;;20.20;99.90;;;;;;5014271;28;20179;-74
2021/06/15 06:54:41;;;;;;;21.20;18.10;;;20.10;99.90;;;;;;5015321;28;20215;-74
2021/06/15 06:57:08;;;;;;;25.30;19.40;;;20.10;99.90;;;;;;5015507;28;20656;-74
2021/06/15 06:59:34;;;;;;;23.13;18.07;;;20.10;99.90;;;;;;5015443;28;20183;-74
2021/06/15 07:02:00;;;;;;;26.20;19.63;;;20.20;99.90;;;;;;5015455;28;20429;-75
2021/06/15 07:04:26;;;;;;;24.23;18.77;;;20.10;99.90;;;;;;5014826;28;20328;-76
2021/06/15 07:06:51;;;;;;;16.97;15.13;;;20.20;99.90;;;;;;5015362;28;20656;-75
2021/06/15 07:09:17;;;;;;;18.70;15.60;;;20.30;99.90;;;;;;5015197;28;20493;-75
2021/06/15 07:11:42;;;;;;;16.10;14.40;;;20.50;99.90;;;;;;5014064;28;20637;-75
2021/06/15 07:14:08;;;;;;;15.93;13.17;;;20.60;99.90;;;;;;5014856;28;20226;-75
2021/06/15 07:16:34;;;;;;;20.80;12.50;;;20.90;99.90;;;;;;5015186;28;20178;-75
2021/06/15 07:18:59;;;;;;;20.07;14.70;;;20.90;99.90;;;;;;5014334;28;20202;-76
2021/06/15 07:21:25;;;;;;;13.60;12.07;;;20.90;99.90;;;;;;5015099;28;20183;-76
2021/06/15 07:23:51;;;;;;;16.30;11.20;;;20.90;99.90;;;;;;5013512;28;20265;-75
2021/06/15 07:26:19;;;;;;;16.87;11.60;;;21.00;99.90;;;;;;5026027;28;20197;-76
2021/06/15 07:28:45;;;;;;;14.80;10.67;;;21.30;99.90;;;;;;5034664;28;20919;-75
2021/06/15 07:31:10;;;;;;;15.17;12.63;;;21.50;99.90;;;;;;5034698;28;20453;-76
2021/06/15 07:33:36;;;;;;;17.70;12.70;;;21.60;99.90;;;;;;5034281;28;20190;-75
2021/06/15 07:36:02;;;;;;;12.80;11.10;;;21.50;99.90;;;;;;5034367;28;20194;-75
2021/06/15 07:38:27;;;;;;;16.17;13.33;;;21.60;99.90;;;;;;5034301;28;20201;-76
2021/06/15 07:40:54;;;;;;;17.53;14.43;;;21.50;99.90;;;;;;5034552;28;20252;-76
2021/06/15 07:43:20;;;;;;;17.87;13.43;;;21.30;99.90;;;;;;5034301;28;20350;-75
2021/06/15 07:45:46;;;;;;;17.53;12.90;;;21.60;99.90;;;;;;5034420;28;20504;-76
2021/06/15 07:48:12;;;;;;;15.27;12.80;;;21.50;99.90;;;;;;5034215;28;20559;-74
2021/06/15 07:50:37;;;;;;;15.53;12.57;;;21.70;99.90;;;;;;5034102;28;20247;-77
2021/06/15 07:53:03;;;;;;;14.33;12.47;;;21.40;99.90;;;;;;5034100;28;20227;-75
2021/06/15 07:55:29;;;;;;;15.03;11.57;;;21.80;99.90;;;;;;5034161;28;20220;-75
2021/06/15 07:57:54;;;;;;;13.97;10.00;;;21.60;99.90;;;;;;5034349;28;20186;-76
2021/06/15 08:00:20;;;;;;;13.90;10.20;;;21.70;99.90;;;;;;5034161;28;20612;-76
2021/06/15 08:02:47;;;;;;;12.30;9.60;;;21.90;99.90;;;;;;5033769;28;20201;-76
2021/06/15 08:05:14;;;;;;;10.10;8.93;;;21.90;99.90;;;;;;5034294;28;20448;-76
2021/06/15 08:07:40;;;;;;;11.50;8.67;;;22.20;99.90;;;;;;5034187;28;20464;-76
2021/06/15 08:10:06;;;;;;;9.70;8.70;;;22.60;99.90;;;;;;5034417;28;20444;-74
2021/06/15 08:12:32;;;;;;;12.90;8.90;;;22.60;99.90;;;;;;5033984;28;20463;-76
2021/06/15 08:14:58;;;;;;;10.33;9.27;;;22.40;99.90;;;;;;5033650;28;20863;-76
2021/06/15 08:17:23;;;;;;;10.20;7.73;;;22.40;99.90;;;;;;5034122;28;20269;-76
2021/06/15 08:19:50;;;;;;;12.37;10.37;;;23.00;99.90;;;;;;5033935;28;20552;-76
2021/06/15 08:22:16;;;;;;;15.20;10.93;;;23.10;99.90;;;;;;5033836;28;20189;-76
2021/06/15 08:24:42;;;;;;;13.27;10.93;;;22.80;99.90;;;;;;5033293;28;20445;-76
2021/06/15 08:27:07;;;;;;;14.70;10.73;;;22.80;99.90;;;;;;5032292;28;20252;-76
2021/06/15 08:29:33;;;;;;;15.60;10.40;;;23.00;99.90;;;;;;5033934;28;20204;-76
2021/06/15 08:31:59;;;;;;;13.67;9.73;;;23.00;99.90;;;;;;5033610;28;20175;-76
2021/06/15 08:34:24;;;;;;;14.37;10.03;;;23.00;99.90;;;;;;5033045;28;20213;-76
2021/06/15 08:36:50;;;;;;;10.40;8.10;;;23.00;99.90;;;;;;5033004;28;20289;-76
2021/06/15 08:39:16;;;;;;;10.73;9.17;;;23.40;99.90;;;;;;5033012;28;20178;-76
2021/06/15 08:41:42;;;;;;;12.07;9.00;;;23.50;99.90;;;;;;5033549;28;20179;-76
2021/06/15 08:44:08;;;;;;;10.27;8.73;;;23.90;99.90;;;;;;5032967;28;20206;-76
2021/06/15 08:46:34;;;;;;;11.23;9.53;;;23.70;99.90;;;;;;5033343;28;20185;-76
2021/06/15 08:49:02;;;;;;;9.60;7.83;;;23.60;99.90;;;;;;5033311;28;20812;-77
2021/06/15 08:51:28;;;;;;;11.23;8.17;;;23.50;99.90;;;;;;5048726;28;20781;-76
2021/06/15 08:54:03;;;;;;;9.67;7.73;;;23.20;99.90;;;;;;5033163;28;20440;-76
2021/06/15 08:56:33;;;;;;;11.03;7.40;;;23.50;99.90;;;;;;5033666;28;20764;-76
2021/06/15 08:59:18;;;;;;;10.80;8.40;;;23.10;99.90;;;;;;5033336;28;20804;-75
2021/06/15 09:01:46;;;;;;;9.00;7.20;;;23.60;99.90;;;;;;5033386;28;20894;-76
2021/06/15 09:04:11;;;;;;;10.40;6.40;;;24.30;99.90;;;;;;5032747;28;20444;-75
2021/06/15 09:06:37;;;;;;;6.83;4.80;;;24.60;99.90;;;;;;5033236;28;20421;-73
2021/06/15 09:09:03;;;;;;;7.23;6.17;;;25.10;99.90;;;;;;5033053;28;20201;-75
2021/06/15 09:11:54;;;;;;;8.23;6.10;;;24.70;99.90;;;;;;5033056;28;20549;-75
2021/06/15 09:14:56;;;;;;;8.63;6.20;;;24.30;99.90;;;;;;5031247;28;20866;-75
2021/06/15 09:17:28;;;;;;;9.00;6.00;;;24.40;99.90;;;;;;4999798;28;20798;-76
2021/06/15 09:20:17;;;;;;;7.73;5.90;;;24.70;99.90;;;;;;4992436;28;20429;-75
2021/06/15 09:22:43;;;;;;;6.60;5.37;;;24.70;99.90;;;;;;4991251;28;20481;-79
2021/06/15 09:25:14;;;;;;;7.17;5.30;;;25.60;99.90;;;;;;4992241;28;20434;-75
2021/06/15 09:27:40;;;;;;;9.03;6.17;;;25.30;99.90;;;;;;4992135;28;20557;-75
2021/06/15 09:30:08;;;;;;;6.90;5.40;;;24.50;99.90;;;;;;4992471;28;20419;-75
2021/06/15 09:32:41;;;;;;;5.03;4.50;;;24.60;99.90;;;;;;4991978;28;20433;-74
2021/06/15 09:35:15;;;;;;;5.40;4.03;;;24.90;99.90;;;;;;4991430;28;20478;-75
2021/06/15 09:37:47;;;;;;;6.47;5.73;;;25.40;99.90;;;;;;4991011;28;20427;-75
2021/06/15 09:40:26;;;;;;;5.77;4.70;;;26.00;99.90;;;;;;4991984;28;20960;-75
2021/06/15 09:43:12;;;;;;;7.50;4.30;;;25.80;99.90;;;;;;4991996;28;20449;-76
2021/06/15 09:45:46;;;;;;;9.40;5.70;;;26.80;99.90;;;;;;4990952;28;20493;-76
2021/06/15 09:48:28;;;;;;;8.60;4.90;;;26.70;99.90;;;;;;4992105;28;20867;-75
2021/06/15 09:51:09;;;;;;;7.43;5.50;;;26.50;99.90;;;;;;4995491;28;20410;-75
2021/06/15 09:53:37;;;;;;;6.67;5.50;;;26.40;99.90;;;;;;4994642;28;20430;-76
2021/06/15 09:56:08;;;;;;;5.43;4.77;;;25.60;99.90;;;;;;4995686;28;20423;-75
2021/06/15 09:58:47;;;;;;;7.30;5.00;;;26.20;99.90;;;;;;4995195;28;20422;-78
2021/06/15 10:01:34;;;;;;;5.53;3.60;;;26.00;99.90;;;;;;4995723;28;21035;-75
2021/06/15 10:04:12;;;;;;;7.83;4.60;;;26.40;99.90;;;;;;4994629;28;20434;-75
2021/06/15 10:06:40;;;;;;;5.57;4.50;;;27.10;99.90;;;;;;4994838;28;20452;-75
2021/06/15 10:09:07;;;;;;;11.07;4.93;;;27.10;99.90;;;;;;4995202;28;20457;-76
2021/06/15 10:11:33;;;;;;;6.60;5.43;;;27.10;99.90;;;;;;4995141;28;20497;-76
2021/06/15 10:14:01;;;;;;;6.57;3.87;;;27.20;99.90;;;;;;4994247;28;20861;-75
2021/06/15 10:16:28;;;;;;;5.17;4.70;;;27.40;99.90;;;;;;4998261;28;20433;-75
2021/06/15 10:18:54;;;;;;;6.10;4.93;;;27.30;99.90;;;;;;4998235;28;21031;-75
2021/06/15 10:21:20;;;;;;;7.93;4.17;;;26.90;99.90;;;;;;4993345;28;20554;-75
2021/06/15 10:23:45;;;;;;;8.00;4.17;;;27.20;99.90;;;;;;4994462;28;20859;-75
2021/06/15 10:26:11;;;;;;;5.67;4.93;;;27.10;99.90;;;;;;4995287;28;20423;-75
2021/06/15 10:28:38;;;;;;;12.17;5.37;;;27.30;99.90;;;;;;4994235;28;20298;-75
2021/06/15 10:31:04;;;;;;;9.17;5.93;;;28.00;99.90;;;;;;4995332;28;20430;-75
2021/06/15 10:33:47;;;;;;;7.60;4.57;;;27.50;99.90;;;;;;4994374;28;20553;-76
2021/06/15 10:36:14;;;;;;;10.33;4.53;;;28.20;99.90;;;;;;4994433;28;20856;-76
2021/06/15 10:38:46;;;;;;;5.90;5.10;;;28.30;99.90;;;;;;4994743;28;20423;-75
2021/06/15 10:41:25;;;;;;;7.73;4.40;;;27.60;99.90;;;;;;4995002;28;20790;-76
2021/06/15 10:43:56;;;;;;;5.23;3.83;;;28.20;99.90;;;;;;4992513;28;20469;-76
2021/06/15 10:46:22;;;;;;;5.67;5.17;;;28.60;99.90;;;;;;4994486;28;20809;-76
2021/06/15 10:49:02;;;;;;;5.10;3.50;;;28.80;99.90;;;;;;4994774;28;20462;-76
2021/06/15 10:51:29;;;;;;;6.17;4.37;;;28.20;99.90;;;;;;4993856;28;20195;-74
2021/06/15 10:54:02;;;;;;;4.90;3.03;;;27.60;99.90;;;;;;4994463;28;20821;-74
2021/06/15 10:56:38;;;;;;;3.97;3.50;;;27.90;99.90;;;;;;4994225;28;20485;-75
2021/06/15 10:59:07;;;;;;;8.20;3.60;;;28.60;99.90;;;;;;4993776;28;20572;-74
2021/06/15 11:01:38;;;;;;;9.73;4.20;;;28.20;99.90;;;;;;4992433;28;20458;-73
2021/06/15 11:04:04;;;;;;;4.97;3.80;;;28.70;99.90;;;;;;4994052;28;20457;-75
2021/06/15 11:06:30;;;;;;;4.67;4.07;;;29.10;99.90;;;;;;4993379;28;20423;-75
2021/06/15 11:09:16;;;;;;;8.93;4.03;;;28.90;99.90;;;;;;4994918;28;20206;-74
2021/06/15 11:12:04;;;;;;;4.97;2.87;;;28.80;99.90;;;;;;4995718;28;20167;-74
2021/06/15 11:14:30;;;;;;;3.63;2.57;;;29.40;99.90;;;;;;4991622;28;20446;-75
2021/06/15 11:16:59;;;;;;;5.43;3.60;;;28.80;99.90;;;;;;4995689;28;20829;-75
2021/06/15 11:19:25;;;;;;;6.13;3.33;;;29.00;99.90;;;;;;4995455;28;20187;-75
2021/06/15 11:21:54;;;;;;;4.10;3.10;;;29.30;99.90;;;;;;4995144;28;20772;-75
2021/06/15 11:24:44;;;;;;;3.80;2.50;;;29.70;99.90;;;;;;4995187;28;20196;-75
2021/06/15 11:27:11;;;;;;;6.37;2.80;;;29.20;99.90;;;;;;4992187;28;20474;-74
2021/06/15 11:29:44;;;;;;;4.83;3.03;;;29.00;99.90;;;;;;4995469;28;20411;-75
2021/06/15 11:32:13;;;;;;;4.17;2.70;;;29.50;99.90;;;;;;4995183;28;20403;-75
2021/06/15 11:35:03;;;;;;;3.57;2.87;;;29.20;99.90;;;;;;4994817;28;20484;-75
2021/06/15 11:37:34;;;;;;;6.43;2.60;;;29.00;99.90;;;;;;4995521;28;20480;-75
2021/06/15 11:40:09;;;;;;;5.03;2.37;;;30.10;99.90;;;;;;4995185;28;20465;-75
2021/06/15 11:42:35;;;;;;;5.00;2.60;;;30.20;99.90;;;;;;4994985;28;20414;-75
2021/06/15 11:45:06;;;;;;;4.33;2.60;;;30.30;99.90;;;;;;4994893;28;20965;-75
2021/06/15 11:47:52;;;;;;;2.80;2.07;;;30.30;99.90;;;;;;4995351;28;20289;-75
2021/06/15 11:50:36;;;;;;;4.50;2.40;;;30.50;99.90;;;;;;4995206;28;20812;-75
2021/06/15 11:53:03;;;;;;;7.23;2.27;;;30.20;99.90;;;;;;4994832;28;20505;-75
2021/06/15 11:55:32;;;;;;;3.77;2.10;;;30.70;99.90;;;;;;4994916;28;20438;-75
2021/06/15 11:58:05;;;;;;;3.27;2.60;;;31.10;99.90;;;;;;4998602;28;20434;-75
2021/06/15 12:00:34;;;;;;;3.80;2.30;;;30.30;99.90;;;;;;4994035;28;20434;-77
2021/06/15 12:03:14;;;;;;;5.07;2.50;;;30.80;99.90;;;;;;4992898;28;20454;-75
2021/06/15 12:05:42;;;;;;;2.37;2.17;;;30.80;99.90;;;;;;4992252;28;20423;-77
2021/06/15 12:08:08;;;;;;;2.67;2.20;;;31.00;99.90;;;;;;4993169;28;20470;-81
2021/06/15 12:10:35;;;;;;;3.23;2.37;;;30.00;99.90;;;;;;4992879;28;20434;-79
2021/06/15 12:13:13;;;;;;;7.50;2.20;;;31.10;99.90;;;;;;4991526;28;20458;-76
2021/06/15 12:15:46;;;;;;;6.80;2.53;;;31.00;99.90;;;;;;4992027;28;20468;-76
2021/06/15 12:18:20;;;;;;;3.90;2.63;;;30.50;99.90;;;;;;4992959;28;20931;-77
2021/06/15 12:20:49;;;;;;;9.80;2.33;;;31.30;99.90;;;;;;4992596;28;20547;-76
2021/06/15 12:23:34;;;;;;;2.60;1.97;;;31.50;99.90;;;;;;4992775;28;20433;-76
2021/06/15 12:26:06;;;;;;;4.03;1.97;;;31.70;99.90;;;;;;4991848;28;20434;-76
2021/06/15 12:28:31;;;;;;;2.30;1.60;;;31.90;99.90;;;;;;4992769;28;20476;-76
2021/06/15 12:31:08;;;;;;;5.30;2.00;;;32.40;99.90;;;;;;4992704;28;20506;-76
2021/06/15 12:33:34;;;;;;;3.87;2.40;;;32.00;99.90;;;;;;4991579;28;20283;-76
2021/06/15 12:36:03;;;;;;;1.97;1.77;;;31.10;99.90;;;;;;4991953;28;20525;-76
2021/06/15 12:38:30;;;;;;;2.63;2.00;;;31.70;99.90;;;;;;4993731;28;20187;-76
2021/06/15 12:40:57;;;;;;;4.80;2.17;;;31.60;99.50;;;;;;4997593;28;20839;-76
2021/06/15 12:43:26;;;;;;;3.17;2.33;;;31.80;99.40;;;;;;4994795;28;20972;-76
2021/06/15 12:46:07;;;;;;;4.73;2.13;;;32.20;98.80;;;;;;5012121;28;20843;-76
2021/06/15 12:48:34;;;;;;;4.17;2.47;;;32.60;97.40;;;;;;5011562;28;20457;-76
2021/06/15 12:51:06;;;;;;;4.70;2.27;;;31.30;98.50;;;;;;5012181;28;20449;-76